Time;durP1;ratioP1;P1;durP2;ratioP2;P2;SDS_P1;SDS_P2;PMS_P1;PMS_P2;Temp;Humidity;BMP_temperature;BMP_pressure;BME280_temperature;BME280_humidity;BME280_pressure;Samples;Min_cycle;Max_cycle;Signal;HPM_P1;HPM_P2
2023/08/22 00:02:12;;;;;;;8.80;4.27;;;;;;;19.79;82.95;101877.81;5251605;28;20070;-75
2023/08/22 00:04:43;;;;;;;7.00;4.50;;;;;;;19.55;83.79;101874.19;5286543;28;20040;-74
2023/08/22 00:07:14;;;;;;;7.80;4.47;;;;;;;19.77;82.92;101877.03;5286745;28;20031;-74
2023/08/22 00:09:46;;;;;;;12.37;5.27;;;;;;;19.72;83.39;101880.69;5286454;28;20498;-75
2023/08/22 00:12:18;;;;;;;8.03;4.40;;;;;;;19.75;83.29;101885.88;5286352;28;20483;-75
2023/08/22 00:14:50;;;;;;;9.25;4.88;;;;;;;19.67;83.71;101886.13;5286183;28;20066;-75
2023/08/22 00:17:21;;;;;;;8.88;4.97;;;;;;;19.62;84.17;101883.63;5286532;28;20040;-76
2023/08/22 00:19:53;;;;;;;8.93;4.60;;;;;;;19.70;84.01;101885.19;5286154;28;20032;-75
2023/08/22 00:22:24;;;;;;;7.67;4.50;;;;;;;19.64;84.65;101876.53;5286266;28;20112;-75
2023/08/22 00:24:55;;;;;;;6.13;4.73;;;;;;;19.57;84.53;101872.34;5286388;28;20578;-76
2023/08/22 00:27:27;;;;;;;8.33;4.83;;;;;;;19.57;84.77;101872.34;5267995;28;20464;-75
2023/08/22 00:29:59;;;;;;;7.35;5.00;;;;;;;19.44;85.40;101868.38;5286123;28;20460;-74
2023/08/22 00:32:31;;;;;;;9.27;4.93;;;;;;;19.60;84.93;101881.97;5281326;28;20033;-76
2023/08/22 00:35:02;;;;;;;9.57;4.57;;;;;;;19.54;85.42;101874.25;5265063;28;20033;-75
2023/08/22 00:37:34;;;;;;;6.17;4.03;;;;;;;19.48;85.77;101876.16;5247176;28;20033;-75
2023/08/22 00:40:06;;;;;;;7.27;4.53;;;;;;;19.55;86.02;101873.34;5264964;28;20163;-75
2023/08/22 00:42:38;;;;;;;6.97;4.78;;;;;;;19.44;86.24;101871.88;5247046;28;20456;-75
2023/08/22 00:45:10;;;;;;;7.87;4.60;;;;;;;19.52;86.21;101871.63;5264911;28;20065;-76
2023/08/22 00:47:41;;;;;;;7.47;4.35;;;;;;;19.48;86.63;101867.34;5246185;28;20028;-77
2023/08/22 00:50:12;;;;;;;7.83;4.40;;;;;;;19.49;86.70;101866.44;5264872;28;20029;-75
2023/08/22 00:52:44;;;;;;;9.27;4.97;;;;;;;19.46;86.74;101862.16;5264926;28;20055;-75
2023/08/22 00:55:15;;;;;;;10.67;4.80;;;;;;;19.46;86.44;101859.50;5264772;28;20036;-75
2023/08/22 00:57:47;;;;;;;11.60;5.13;;;;;;;19.28;87.35;101853.00;5264592;28;20033;-75
2023/08/22 01:00:18;;;;;;;8.27;5.03;;;;;;;19.31;87.56;101855.56;5264223;28;20054;-75
2023/08/22 01:02:50;;;;;;;10.07;5.93;;;;;;;19.31;87.75;101860.84;5264604;28;20148;-75
2023/08/22 01:05:26;;;;;;;10.10;5.50;;;;;;;19.30;88.16;101859.13;5264582;28;20021;-74
2023/08/22 01:08:28;;;;;;;9.43;5.65;;;;;;;19.23;88.71;101841.72;5264501;28;20155;-75
2023/08/22 01:11:09;;;;;;;10.00;5.20;;;;;;;19.11;89.09;101850.91;5250310;28;20056;-75
2023/08/22 01:13:42;;;;;;;8.57;4.90;;;;;;;19.07;89.10;101848.41;5264412;28;20108;-76
2023/08/22 01:16:15;;;;;;;6.13;4.40;;;;;;;18.91;90.09;101851.53;5263915;28;20079;-75
2023/08/22 01:18:48;;;;;;;8.68;5.25;;;;;;;18.93;90.01;101851.47;5263972;28;20056;-75
2023/08/22 01:21:20;;;;;;;8.35;5.47;;;;;;;18.91;89.88;101856.81;5246374;28;20040;-75
2023/08/22 01:23:51;;;;;;;11.05;5.63;;;;;;;18.97;89.91;101857.56;5246325;28;20051;-74
2023/08/22 01:26:23;;;;;;;10.43;5.07;;;;;;;18.96;90.02;101851.38;5264120;28;20037;-75
2023/08/22 01:29:01;;;;;;;11.70;5.33;;;;;;;18.79;90.97;101859.81;5264249;28;20480;-76
2023/08/22 01:31:35;;;;;;;8.00;4.10;;;;;;;18.95;90.26;101842.59;5263483;28;20362;-76
2023/08/22 01:34:17;;;;;;;7.05;4.95;;;;;;;18.87;91.50;101839.34;5263643;28;20029;-76
2023/08/22 01:36:54;;;;;;;7.88;4.40;;;;;;;18.83;91.16;101835.00;5246315;28;20476;-75
2023/08/22 01:39:27;;;;;;;9.52;4.63;;;;;;;18.80;91.36;101837.75;5263799;28;20522;-75
2023/08/22 01:42:00;;;;;;;13.00;4.63;;;;;;;18.77;91.71;101841.38;5263737;28;20119;-76
2023/08/22 01:44:31;;;;;;;8.68;4.95;;;;;;;18.85;91.04;101838.53;5263424;28;20124;-74
2023/08/22 01:47:03;;;;;;;9.30;5.17;;;;;;;18.83;91.49;101845.59;5245966;28;20535;-75
2023/08/22 01:49:37;;;;;;;8.63;5.05;;;;;;;18.86;91.41;101845.53;5263321;28;20029;-74
2023/08/22 01:52:08;;;;;;;8.05;4.93;;;;;;;18.86;91.46;101836.75;5270218;28;20052;-75
2023/08/22 01:54:40;;;;;;;7.43;5.17;;;;;;;18.83;91.53;101840.28;5284024;28;20039;-76
2023/08/22 01:57:11;;;;;;;10.50;5.23;;;;;;;18.80;91.90;101836.91;5284247;28;20036;-75
2023/08/22 01:59:42;;;;;;;5.23;3.70;;;;;;;18.90;91.38;101838.38;5284143;28;20052;-75
2023/08/22 02:02:14;;;;;;;8.10;5.40;;;;;;;18.80;91.53;101835.09;5283895;28;20063;-76
2023/08/22 02:04:45;;;;;;;8.77;4.80;;;;;;;18.87;92.32;101839.34;5284183;28;20032;-75
2023/08/22 02:07:16;;;;;;;6.77;4.70;;;;;;;18.85;92.27;101835.88;5282912;28;20056;-76
2023/08/22 02:09:48;;;;;;;5.93;4.53;;;;;;;18.74;92.62;101830.88;5283771;28;20044;-75
2023/08/22 02:12:19;;;;;;;8.90;5.07;;;;;;;18.76;92.42;101830.84;5283763;28;20033;-75
2023/08/22 02:14:54;;;;;;;8.20;5.00;;;;;;;18.71;93.14;101832.78;5283621;28;20029;-75
2023/08/22 02:17:26;;;;;;;7.63;4.53;;;;;;;18.72;93.50;101834.47;5283839;28;20559;-75
2023/08/22 02:19:57;;;;;;;6.70;4.70;;;;;;;18.69;93.45;101832.81;5282497;28;20136;-75
2023/08/22 02:22:29;;;;;;;11.47;5.27;;;;;;;18.64;93.41;101829.41;5282943;28;20036;-75
2023/08/22 02:25:00;;;;;;;9.37;4.93;;;;;;;18.58;93.65;101817.28;5283789;28;20028;-76
2023/08/22 02:27:32;;;;;;;10.10;5.67;;;;;;;18.61;94.19;101823.38;5284131;28;20051;-76
2023/08/22 02:30:08;;;;;;;10.97;5.13;;;;;;;18.56;94.74;101821.75;5283876;28;20115;-75
2023/08/22 02:32:39;;;;;;;9.95;5.65;;;;;;;18.54;94.32;101822.69;5283212;28;20039;-75
2023/08/22 02:35:12;;;;;;;7.93;5.05;;;;;;;18.45;94.94;101821.19;5283782;28;20025;-76
2023/08/22 02:37:43;;;;;;;7.57;4.60;;;;;;;18.42;95.12;101813.38;5283459;28;20040;-75
2023/08/22 02:40:15;;;;;;;7.20;4.60;;;;;;;18.45;95.14;101818.56;5283584;28;20531;-75
2023/08/22 02:42:46;;;;;;;10.83;5.57;;;;;;;18.23;95.72;101813.88;5283599;28;20537;-75
2023/08/22 02:45:18;;;;;;;8.50;5.27;;;;;;;18.16;96.12;101814.09;5283615;28;20079;-76
2023/08/22 02:47:49;;;;;;;8.33;5.37;;;;;;;18.26;96.28;101814.69;5283854;28;20039;-75
2023/08/22 02:50:23;;;;;;;7.03;5.00;;;;;;;18.18;96.82;101813.16;5283540;28;20060;-75
2023/08/22 02:52:54;;;;;;;12.32;5.68;;;;;;;18.17;96.96;101811.41;5283366;28;20079;-75
2023/08/22 02:55:25;;;;;;;8.10;4.53;;;;;;;18.21;96.93;101818.34;5283539;28;20072;-75
2023/08/22 02:57:57;;;;;;;7.27;4.77;;;;;;;18.18;97.06;101823.72;5283165;28;20031;-75
2023/08/22 03:00:29;;;;;;;8.30;4.63;;;;;;;18.21;97.25;101823.63;5283146;28;20349;-75
2023/08/22 03:03:00;;;;;;;8.90;4.90;;;;;;;18.10;97.44;101812.50;5284332;28;20029;-75
2023/08/22 03:05:32;;;;;;;6.55;4.90;;;;;;;18.15;97.35;101815.88;5285639;28;20044;-76
2023/08/22 03:08:04;;;;;;;11.00;5.17;;;;;;;18.14;97.79;101819.41;5288480;28;20053;-75
2023/08/22 03:10:35;;;;;;;8.63;5.47;;;;;;;18.07;97.98;101814.38;5292128;28;20040;-76
2023/08/22 03:13:06;;;;;;;8.87;4.93;;;;;;;18.11;97.88;101819.53;5294436;28;20033;-75
2023/08/22 03:15:38;;;;;;;14.00;5.17;;;;;;;18.01;98.19;101815.41;5294724;28;20153;-75
2023/08/22 03:18:09;;;;;;;10.77;4.90;;;;;;;17.90;98.64;101818.31;5293268;28;20036;-76
2023/08/22 03:20:40;;;;;;;7.77;4.93;;;;;;;18.01;99.09;101815.41;5287445;28;20115;-77
2023/08/22 03:23:14;;;;;;;7.80;4.63;;;;;;;17.90;98.90;101812.19;5287759;28;20070;-76
2023/08/22 03:25:55;;;;;;;7.35;4.70;;;;;;;17.89;99.55;101819.25;5287428;28;20033;-76
2023/08/22 03:28:27;;;;;;;8.65;4.38;;;;;;;17.96;98.91;101812.03;5287126;28;20071;-75
2023/08/22 03:31:02;;;;;;;10.88;5.47;;;;;;;17.97;98.91;101811.13;5286880;28;20066;-74
2023/08/22 03:33:34;;;;;;;10.20;5.65;;;;;;;17.82;98.58;101822.91;5287380;28;20032;-75
2023/08/22 03:36:05;;;;;;;10.13;6.27;;;;;;;17.83;98.98;101825.50;5287198;28;20495;-75
2023/08/22 03:38:37;;;;;;;11.97;6.07;;;;;;;17.81;99.17;101823.81;5286891;28;20028;-75
2023/08/22 03:41:08;;;;;;;8.57;5.10;;;;;;;17.76;99.38;101817.78;5286991;28;20115;-75
2023/08/22 03:43:39;;;;;;;11.33;4.90;;;;;;;17.70;99.50;101813.56;5287141;28;20028;-74
2023/08/22 03:46:11;;;;;;;9.97;5.27;;;;;;;17.70;99.60;101815.34;5286959;28;20032;-76
2023/08/22 03:48:42;;;;;;;6.93;4.60;;;;;;;17.71;99.60;101817.94;5286863;28;20028;-76
2023/08/22 03:51:13;;;;;;;9.83;4.83;;;;;;;17.58;100.00;101820.03;5281739;28;20127;-76
2023/08/22 03:53:45;;;;;;;12.10;5.20;;;;;;;17.55;100.00;101808.66;5247862;28;20090;-74
2023/08/22 03:56:16;;;;;;;8.03;5.97;;;;;;;17.46;100.00;101813.25;5266039;28;20037;-75
2023/08/22 03:58:48;;;;;;;8.90;5.63;;;;;;;17.45;100.00;101815.94;5265801;28;20029;-75
2023/08/22 04:01:19;;;;;;;8.37;5.90;;;;;;;17.36;100.00;101827.59;5265644;28;20029;-74
2023/08/22 04:03:51;;;;;;;9.53;5.90;;;;;;;17.30;100.00;101818.06;5266860;28;20036;-75
2023/08/22 04:06:22;;;;;;;10.48;6.35;;;;;;;17.27;100.00;101812.00;5266739;28;20025;-75
2023/08/22 04:08:54;;;;;;;11.37;6.10;;;;;;;17.22;100.00;101812.09;5248885;28;20093;-74
2023/08/22 04:11:25;;;;;;;8.90;6.53;;;;;;;17.06;100.00;101816.00;5266532;28;20067;-74
2023/08/22 04:13:56;;;;;;;10.60;5.53;;;;;;;17.14;100.00;101820.19;5266292;28;20427;-76
2023/08/22 04:16:28;;;;;;;10.87;6.17;;;;;;;17.11;100.00;101808.84;5266531;28;20065;-75
2023/08/22 04:18:59;;;;;;;9.10;6.27;;;;;;;17.03;100.00;101814.31;5266089;28;20036;-75
2023/08/22 04:21:31;;;;;;;9.47;6.67;;;;;;;16.96;100.00;101810.09;5265049;28;20068;-75
2023/08/22 04:24:02;;;;;;;7.77;5.50;;;;;;;16.96;100.00;101810.09;5266480;28;20040;-74
2023/08/22 04:26:33;;;;;;;10.10;6.60;;;;;;;16.98;100.00;101804.78;5266725;28;20038;-76
2023/08/22 04:29:05;;;;;;;9.07;6.13;;;;;;;16.91;100.00;101806.72;5265817;28;20040;-74
2023/08/22 04:31:36;;;;;;;11.60;6.77;;;;;;;16.90;100.00;101810.22;5265315;28;20080;-75
2023/08/22 04:34:07;;;;;;;10.23;6.83;;;;;;;16.82;100.00;101796.34;5265412;28;20476;-76
2023/08/22 04:36:39;;;;;;;8.00;6.53;;;;;;;16.78;100.00;101804.31;5265095;28;20388;-75
2023/08/22 04:39:10;;;;;;;8.10;6.50;;;;;;;16.72;100.00;101807.06;5264986;28;20116;-76
2023/08/22 04:41:43;;;;;;;10.37;6.10;;;;;;;16.69;100.00;101804.50;5264834;28;20037;-76
2023/08/22 04:44:14;;;;;;;8.38;6.57;;;;;;;16.67;100.00;101803.69;5247199;28;20040;-76
2023/08/22 04:46:45;;;;;;;12.10;6.40;;;;;;;16.70;100.00;101811.50;5264767;28;20037;-75
2023/08/22 04:49:17;;;;;;;9.33;7.23;;;;;;;16.70;100.00;101810.66;5247167;28;20040;-75
2023/08/22 04:51:48;;;;;;;13.50;7.67;;;;;;;16.63;100.00;101809.03;5264765;28;20052;-76
2023/08/22 04:54:19;;;;;;;13.20;7.33;;;;;;;16.58;100.00;101814.41;5264841;28;20087;-76
2023/08/22 04:56:51;;;;;;;11.53;8.10;;;;;;;16.61;100.00;101809.06;5264809;28;20039;-76
2023/08/22 04:59:22;;;;;;;11.17;7.60;;;;;;;16.59;100.00;101811.75;5264708;28;20029;-77
2023/08/22 05:01:53;;;;;;;12.90;7.70;;;;;;;16.57;100.00;101810.91;5264188;28;20167;-77
2023/08/22 05:04:25;;;;;;;8.90;7.10;;;;;;;16.62;100.00;101810.81;5264228;28;20025;-77
2023/08/22 05:06:56;;;;;;;11.43;7.13;;;;;;;16.65;100.00;101813.38;5264275;28;20076;-77
2023/08/22 05:09:28;;;;;;;12.23;7.57;;;;;;;16.67;100.00;101819.47;5264270;28;20029;-76
2023/08/22 05:11:59;;;;;;;8.73;7.47;;;;;;;16.73;100.00;101816.72;5264425;28;20388;-77
2023/08/22 05:14:33;;;;;;;10.00;7.37;;;;;;;16.81;100.00;101815.66;5274487;28;20472;-77
2023/08/22 05:17:04;;;;;;;14.52;8.80;;;;;;;16.80;100.00;101824.47;5282777;28;20108;-77
2023/08/22 05:19:35;;;;;;;12.10;7.93;;;;;;;16.85;100.00;101822.59;5285178;28;20147;-76
2023/08/22 05:22:08;;;;;;;14.93;10.10;;;;;;;16.83;100.00;101813.88;5284834;28;20107;-76
2023/08/22 05:24:39;;;;;;;14.07;10.50;;;;;;;16.91;100.00;101822.50;5284882;28;20036;-76
2023/08/22 05:27:11;;;;;;;14.33;9.73;;;;;;;16.85;100.00;101812.06;5284870;28;20107;-77
2023/08/22 05:29:42;;;;;;;14.73;10.63;;;;;;;16.89;100.00;101811.16;5284893;28;20388;-76
2023/08/22 05:32:13;;;;;;;20.70;10.83;;;;;;;16.88;100.00;101817.31;5283835;28;20044;-76
2023/08/22 05:34:45;;;;;;;12.73;10.23;;;;;;;16.87;100.00;101815.56;5266854;28;20055;-77
2023/08/22 05:37:16;;;;;;;14.93;11.00;;;;;;;16.99;100.00;101811.81;5284823;28;20033;-77
2023/08/22 05:39:48;;;;;;;16.23;10.07;;;;;;;17.05;100.00;101807.25;5284571;28;20024;-77
2023/08/22 05:42:19;;;;;;;14.17;10.70;;;;;;;17.03;100.00;101808.19;5284844;28;20487;-77
2023/08/22 05:44:50;;;;;;;15.20;9.73;;;;;;;17.17;100.00;101803.44;5284527;28;20025;-76
2023/08/22 05:47:22;;;;;;;13.90;9.87;;;;;;;17.22;100.00;101805.97;5284615;28;20086;-76
2023/08/22 05:49:53;;;;;;;16.07;10.47;;;;;;;17.34;100.00;101804.81;5284577;28;20115;-76
2023/08/22 05:52:25;;;;;;;15.43;10.03;;;;;;;17.43;100.00;101812.50;5286524;28;20370;-76
2023/08/22 05:54:57;;;;;;;19.85;9.98;;;;;;;17.46;100.00;101815.91;5284444;28;20062;-76
2023/08/22 05:57:29;;;;;;;15.40;9.63;;;;;;;17.49;100.00;101825.53;5266571;28;20031;-77
2023/08/22 06:00:00;;;;;;;13.52;9.68;;;;;;;17.56;100.00;101826.22;5284251;28;20020;-77
2023/08/22 06:02:32;;;;;;;13.82;10.10;;;;;;;17.63;100.00;101817.28;5283853;28;20025;-76
2023/08/22 06:05:06;;;;;;;12.53;9.50;;;;;;;17.72;100.00;101827.56;5284235;28;20369;-78
2023/08/22 06:07:37;;;;;;;17.63;9.48;;;;;;;17.82;100.00;101829.06;5284119;28;20024;-77
2023/08/22 06:10:09;;;;;;;19.10;8.90;;;;;;;17.90;100.00;101833.28;5284330;28;20103;-77
2023/08/22 06:12:40;;;;;;;17.60;9.33;;;;;;;17.99;99.68;101833.03;5266168;28;20391;-78
2023/08/22 06:15:12;;;;;;;12.00;8.40;;;;;;;18.08;98.60;101830.16;5284078;28;20116;-77
2023/08/22 06:17:43;;;;;;;13.67;7.87;;;;;;;18.20;97.16;101827.16;5266137;28;20032;-77
2023/08/22 06:20:15;;;;;;;11.97;7.90;;;;;;;18.24;97.18;101827.97;5266525;28;20090;-77
2023/08/22 06:22:46;;;;;;;17.42;7.47;;;;;;;18.30;96.03;101829.56;5285121;28;20036;-77
2023/08/22 06:25:17;;;;;;;12.57;7.80;;;;;;;18.48;94.93;101839.59;5286572;28;20024;-76
2023/08/22 06:27:49;;;;;;;12.93;7.00;;;;;;;18.54;94.61;101834.13;5284067;28;20036;-76
2023/08/22 06:30:20;;;;;;;10.00;6.70;;;;;;;18.61;93.51;101833.94;5283423;28;20067;-77
2023/08/22 06:32:51;;;;;;;9.37;6.30;;;;;;;18.70;93.85;101828.38;5283254;28;20081;-77
2023/08/22 06:35:24;;;;;;;19.27;7.10;;;;;;;18.81;93.01;101839.50;5283389;28;20056;-77
2023/08/22 06:37:56;;;;;;;11.38;6.65;;;;;;;18.87;91.28;101841.97;5283490;28;20033;-77
2023/08/22 06:40:27;;;;;;;11.47;6.53;;;;;;;18.98;90.59;101836.34;5283287;28;20033;-76
2023/08/22 06:42:58;;;;;;;11.10;6.03;;;;;;;19.05;89.45;101845.81;5283636;28;20032;-76
2023/08/22 06:45:30;;;;;;;10.47;6.10;;;;;;;19.18;89.06;101840.16;5282613;28;20066;-76
2023/08/22 06:48:01;;;;;;;12.17;6.20;;;;;;;19.29;88.47;101845.97;5283071;28;20455;-76
2023/08/22 06:50:33;;;;;;;10.37;6.53;;;;;;;19.42;87.42;101857.00;5265542;28;20472;-77
2023/08/22 06:53:04;;;;;;;8.40;5.70;;;;;;;19.42;85.58;101862.28;5283651;28;20488;-76
2023/08/22 06:55:35;;;;;;;9.03;5.53;;;;;;;19.55;86.02;101857.47;5283480;28;20028;-77
2023/08/22 06:58:09;;;;;;;7.10;4.43;;;;;;;19.59;82.40;101872.31;5283578;28;20037;-76
2023/08/22 07:00:40;;;;;;;7.03;4.43;;;;;;;19.71;79.80;101881.63;5282848;28;20486;-75
2023/08/22 07:03:12;;;;;;;8.37;4.60;;;;;;;19.86;80.83;101878.47;5283262;28;20020;-77
2023/08/22 07:05:43;;;;;;;8.63;3.90;;;;;;;20.00;77.72;101872.72;5283337;28;20051;-76
2023/08/22 07:08:14;;;;;;;5.40;3.70;;;;;;;20.10;75.88;101879.41;5283298;28;20032;-76
2023/08/22 07:10:46;;;;;;;7.57;3.77;;;;;;;20.12;72.51;101879.34;5283289;28;20418;-77
2023/08/22 07:13:18;;;;;;;10.73;3.43;;;;;;;20.23;73.98;101872.75;5282918;28;20116;-76
2023/08/22 07:15:49;;;;;;;7.18;3.83;;;;;;;20.45;73.39;101879.91;5283478;28;20395;-76
2023/08/22 07:18:21;;;;;;;6.30;3.50;;;;;;;20.45;69.74;101882.56;5283394;28;20029;-77
2023/08/22 07:20:53;;;;;;;6.57;4.07;;;;;;;20.62;70.88;101876.63;5265080;28;20453;-78
2023/08/22 07:23:24;;;;;;;6.07;3.35;;;;;;;20.68;68.61;101884.38;5283323;28;20140;-77
2023/08/22 07:25:55;;;;;;;7.23;3.17;;;;;;;20.71;65.85;101876.31;5283136;28;20032;-77
2023/08/22 07:28:27;;;;;;;4.53;2.70;;;;;;;20.90;65.90;101886.22;5282815;28;20037;-76
2023/08/22 07:31:00;;;;;;;4.43;2.60;;;;;;;20.92;65.22;101889.66;5282355;28;20182;-76
2023/08/22 07:33:31;;;;;;;6.13;3.53;;;;;;;21.09;66.13;101889.88;5283029;28;20035;-76
2023/08/22 07:36:03;;;;;;;5.50;3.57;;;;;;;21.28;66.20;101890.03;5282736;28;20033;-76
2023/08/22 07:38:34;;;;;;;7.80;4.23;;;;;;;21.38;65.42;101882.56;5283108;28;20365;-77
2023/08/22 07:41:05;;;;;;;9.23;4.60;;;;;;;21.66;65.26;101876.13;5282901;28;20025;-78
2023/08/22 07:43:37;;;;;;;9.47;5.77;;;;;;;21.88;65.30;101880.50;5283219;28;20025;-77
2023/08/22 07:46:08;;;;;;;9.27;4.93;;;;;;;22.29;64.99;101888.47;5282840;28;20036;-77
2023/08/22 07:48:40;;;;;;;8.37;5.60;;;;;;;22.56;64.20;101878.41;5282949;28;20082;-77
2023/08/22 07:51:11;;;;;;;8.93;5.57;;;;;;;22.60;63.29;101877.34;5266509;28;20039;-78
2023/08/22 07:53:42;;;;;;;16.73;9.20;;;;;;;22.50;61.48;101882.19;5282876;28;20474;-77
2023/08/22 07:56:14;;;;;;;11.67;7.13;;;;;;;22.39;62.11;101884.50;5284525;28;20041;-77
2023/08/22 07:58:45;;;;;;;13.83;7.43;;;;;;;22.40;61.45;101889.72;5268824;28;20044;-76
2023/08/22 08:01:16;;;;;;;17.37;8.23;;;;;;;22.42;63.10;101875.53;5286253;28;20029;-76
2023/08/22 08:03:48;;;;;;;10.57;5.93;;;;;;;22.45;61.81;101875.41;5286555;28;20025;-77
2023/08/22 08:06:19;;;;;;;14.23;6.47;;;;;;;22.40;62.65;101875.59;5286505;28;20294;-78
2023/08/22 08:08:50;;;;;;;12.07;5.83;;;;;;;22.50;62.66;101887.53;5286196;28;20063;-78
2023/08/22 08:11:22;;;;;;;10.60;5.60;;;;;;;22.76;63.38;101894.31;5286496;28;20082;-76
2023/08/22 08:13:53;;;;;;;16.20;6.10;;;;;;;22.96;62.91;101892.50;5286781;28;20064;-77
2023/08/22 08:16:25;;;;;;;9.30;5.63;;;;;;;22.92;61.88;101890.91;5286367;28;20025;-77
2023/08/22 08:18:56;;;;;;;11.23;4.93;;;;;;;22.75;61.67;101897.03;5286307;28;20044;-77
2023/08/22 08:21:27;;;;;;;13.10;6.43;;;;;;;22.63;62.37;101897.59;5286327;28;20289;-77
2023/08/22 08:23:59;;;;;;;7.53;4.47;;;;;;;22.69;62.72;101895.50;5285875;28;20094;-78
2023/08/22 08:26:30;;;;;;;10.10;4.50;;;;;;;22.79;62.30;101908.38;5286309;28;20059;-77
2023/08/22 08:29:01;;;;;;;11.57;5.07;;;;;;;22.65;62.32;101903.69;5286832;28;20530;-76
2023/08/22 08:31:33;;;;;;;9.37;4.80;;;;;;;22.71;62.41;101904.28;5268838;28;20282;-76
2023/08/22 08:34:04;;;;;;;7.93;4.70;;;;;;;22.85;62.28;101900.13;5287215;28;20028;-76
2023/08/22 08:36:36;;;;;;;10.40;4.80;;;;;;;22.76;62.71;101902.28;5286066;28;20082;-77
2023/08/22 08:39:07;;;;;;;11.93;5.10;;;;;;;23.03;62.31;101906.38;5269239;28;20029;-76
2023/08/22 08:41:48;;;;;;;11.00;4.80;;;;;;;23.03;61.85;101903.72;5287057;28;20372;-77
2023/08/22 08:44:20;;;;;;;9.68;4.80;;;;;;;23.20;61.46;101906.47;5287840;28;20495;-77
2023/08/22 08:46:52;;;;;;;9.05;5.45;;;;;;;23.17;60.79;101895.09;5287259;28;20052;-77
2023/08/22 08:49:24;;;;;;;;;;;;;;;23.36;61.15;101900.38;5287412;28;20154;-78
2023/08/22 08:51:58;;;;;;;11.53;5.10;;;;;;;23.22;61.35;101893.09;5292377;28;20418;-77
2023/08/22 08:54:30;;;;;;;8.60;4.72;;;;;;;23.55;60.84;101889.69;5306239;28;20138;-77
2023/08/22 08:57:05;;;;;;;9.60;4.50;;;;;;;23.64;60.51;101903.41;5307529;28;20108;-76
2023/08/22 08:59:36;;;;;;;10.98;4.55;;;;;;;23.67;59.75;101905.91;5306386;28;20062;-77
2023/08/22 09:02:14;;;;;;;8.43;4.43;;;;;;;23.99;60.05;101906.09;5306556;28;20119;-77
2023/08/22 09:04:46;;;;;;;11.52;4.43;;;;;;;24.06;59.06;101900.47;5306765;28;20115;-76
2023/08/22 09:07:20;;;;;;;12.40;4.95;;;;;;;24.00;59.04;101904.28;5305927;28;20450;-78
2023/08/22 09:09:51;;;;;;;6.93;4.20;;;;;;;23.87;59.27;101904.06;5306058;28;20036;-76
2023/08/22 09:12:32;;;;;;;11.23;5.17;;;;;;;23.64;60.20;101900.75;5306606;28;20081;-76
2023/08/22 09:15:09;;;;;;;11.80;5.65;;;;;;;23.55;60.89;101900.34;5306325;28;20693;-77
2023/08/22 09:17:41;;;;;;;16.02;5.68;;;;;;;23.33;62.01;101904.06;5306246;28;20036;-80
2023/08/22 09:20:12;;;;;;;13.20;6.18;;;;;;;23.44;61.64;101909.72;5305999;28;20101;-75
2023/08/22 09:22:44;;;;;;;13.23;6.63;;;;;;;23.51;60.86;101904.09;5306166;28;20032;-78
2023/08/22 09:25:16;;;;;;;14.10;6.33;;;;;;;23.77;61.28;101910.78;5306061;28;20029;-77
2023/08/22 09:27:51;;;;;;;14.60;6.45;;;;;;;23.77;61.52;101905.44;5306071;28;20278;-77
2023/08/22 09:30:24;;;;;;;11.32;7.10;;;;;;;24.00;61.65;101912.28;5305877;28;20027;-76
2023/08/22 09:32:59;;;;;;;15.32;8.18;;;;;;;23.71;60.84;101911.09;5305728;28;20028;-77
2023/08/22 09:35:32;;;;;;;11.25;7.90;;;;;;;23.63;61.70;101909.66;5305739;28;20143;-77
2023/08/22 09:38:08;;;;;;;13.07;7.63;;;;;;;23.89;62.14;101898.66;5305875;28;20071;-77
2023/08/22 09:40:55;;;;;;;16.23;9.00;;;;;;;25.34;57.36;101909.53;5305728;28;20067;-77
2023/08/22 09:43:29;;;;;;;15.57;8.02;;;;;;;25.58;54.74;101904.59;5305699;28;20032;-76
2023/08/22 09:46:01;;;;;;;15.30;7.20;;;;;;;26.04;54.28;101912.59;5306096;28;20379;-76
2023/08/22 09:48:36;;;;;;;13.88;7.22;;;;;;;26.31;52.26;101914.53;5305563;28;20073;-76
2023/08/22 09:51:09;;;;;;;10.13;6.38;;;;;;;26.13;52.72;101922.72;5305603;28;20078;-77
2023/08/22 09:53:41;;;;;;;17.42;6.60;;;;;;;25.96;52.44;101920.16;5292519;28;20137;-77
2023/08/22 09:56:13;;;;;;;16.52;7.20;;;;;;;25.64;51.97;101914.91;5284099;28;20056;-78
2023/08/22 09:58:46;;;;;;;13.45;7.22;;;;;;;25.83;51.65;101918.22;5284218;28;20133;-77
2023/08/22 10:01:19;;;;;;;12.35;7.80;;;;;;;24.99;53.07;101925.69;5265786;28;20033;-79
2023/08/22 10:03:55;;;;;;;9.77;6.00;;;;;;;24.30;55.51;101919.63;5284070;28;20032;-77
2023/08/22 10:06:29;;;;;;;11.75;6.38;;;;;;;24.90;54.64;101909.28;5284164;28;20044;-76
2023/08/22 10:09:10;;;;;;;8.70;5.45;;;;;;;25.70;54.33;101919.06;5266192;28;20039;-76
2023/08/22 10:11:50;;;;;;;11.90;6.20;;;;;;;25.67;51.27;101920.09;5284067;28;20039;-77
2023/08/22 10:14:28;;;;;;;9.05;5.22;;;;;;;25.74;49.26;101915.22;5284220;28;20028;-79
2023/08/22 10:17:00;;;;;;;10.68;4.75;;;;;;;26.24;47.02;101918.53;5283875;28;20056;-77
2023/08/22 10:19:32;;;;;;;;;;;;;;;27.18;44.18;101921.53;5284225;28;20476;-76
2023/08/22 10:22:10;;;;;;;9.20;3.30;;;;;;;27.14;44.77;101897.72;5283913;28;19948;-77
2023/08/22 10:24:42;;;;;;;6.10;3.30;;;;;;;27.11;43.85;101896.09;5283861;28;20062;-75
2023/08/22 10:27:15;;;;;;;;;;;;;;;28.17;41.92;101906.91;5265991;28;20025;-76
2023/08/22 10:30:07;;;;;;;6.80;2.80;;;;;;;27.52;41.52;101911.28;5283654;28;20358;-77
2023/08/22 10:32:38;;;;;;;6.70;2.97;;;;;;;27.09;44.11;101908.72;5265288;28;20377;-76
2023/08/22 10:35:09;;;;;;;;;;;;;;;26.65;44.54;101902.63;5266013;28;20031;-77
2023/08/22 10:37:49;;;;;;;6.33;3.47;;;;;;;26.96;44.66;101913.19;5283278;28;19988;-78
2023/08/22 10:40:27;;;;;;;8.23;3.40;;;;;;;28.13;43.41;101903.59;5283644;28;20050;-78
2023/08/22 10:43:10;;;;;;;9.35;2.90;;;;;;;29.24;40.16;101897.53;5283261;28;20068;-76
2023/08/22 10:45:47;;;;;;;6.05;2.90;;;;;;;29.39;38.51;101892.81;5283662;28;20048;-77
2023/08/22 10:48:20;;;;;;;6.45;2.80;;;;;;;30.12;37.59;101897.06;5283551;28;20032;-77
2023/08/22 10:50:52;;;;;;;6.22;2.75;;;;;;;30.00;37.63;101901.56;5283187;28;20082;-78
2023/08/22 10:53:26;;;;;;;6.35;2.90;;;;;;;28.77;38.52;101896.47;5283169;28;20056;-79
2023/08/22 10:56:17;;;;;;;8.65;3.35;;;;;;;29.80;38.24;101891.50;5283327;28;20063;-78
2023/08/22 10:59:03;;;;;;;9.87;3.00;;;;;;;30.58;37.64;101897.97;5283401;28;20032;-77
2023/08/22 11:01:35;;;;;;;6.63;2.92;;;;;;;31.57;34.08;101900.69;5265130;28;20029;-78
2023/08/22 11:04:08;;;;;;;5.18;2.42;;;;;;;30.52;35.75;101896.63;5283351;28;20039;-77
2023/08/22 11:06:40;;;;;;;7.50;3.15;;;;;;;30.54;35.43;101900.06;5283155;28;20059;-79
2023/08/22 11:09:12;;;;;;;7.78;2.80;;;;;;;29.92;36.31;101892.41;5283457;28;20032;-78
2023/08/22 11:11:44;;;;;;;7.40;2.90;;;;;;;28.41;38.48;101885.56;5283425;28;20449;-78
2023/08/22 11:14:15;;;;;;;6.07;2.60;;;;;;;28.40;38.07;101885.66;5282999;28;20066;-78
2023/08/22 11:16:47;;;;;;;5.03;2.35;;;;;;;28.66;37.92;101879.34;5283479;28;20379;-77
2023/08/22 11:19:18;;;;;;;;;;;;;;;29.17;35.63;101897.06;5283674;28;20472;-76
2023/08/22 11:21:49;;;;;;;3.33;1.77;;;;;;;27.71;37.17;101894.84;5282876;28;19924;-77
2023/08/22 11:24:21;;;;;;;;;;;;;;;27.86;35.82;101905.47;5283329;28;20051;-78
2023/08/22 11:26:52;;;;;;;5.32;1.45;;;;;;;27.51;37.35;101903.38;5283054;28;19916;-78
2023/08/22 11:29:24;;;;;;;;;;;;;;;28.03;36.40;101894.50;5283432;28;20028;-77
2023/08/22 11:31:55;;;;;;;3.27;1.00;;;;;;;26.73;35.97;101905.66;5285397;28;19920;-77
2023/08/22 11:34:26;;;;;;;;;;;;;;;26.72;36.46;101901.25;5287587;28;20036;-76
2023/08/22 11:36:58;;;;;;;2.30;0.95;;;;;;;25.57;37.89;101909.09;5287278;28;19917;-77
2023/08/22 11:39:29;;;;;;;;;;;;;;;26.04;37.80;101909.06;5287612;28;20032;-77
2023/08/22 11:42:01;;;;;;;1.67;1.20;;;;;;;25.72;38.88;101907.31;5287034;28;19919;-77
2023/08/22 11:44:32;;;;;;;3.67;1.10;;;;;;;25.74;38.20;101916.09;5286947;28;20081;-76
2023/08/22 11:47:11;;;;;;;2.17;0.90;;;;;;;25.69;39.21;101917.31;5286919;28;20032;-76